sensor_id;sensor_type;location;lat;lon;timestamp;temperature;humidity
1383;DHT22;685;47.196;11.880;2022-10-26T00:01:08;9.80;99.90
1383;DHT22;685;47.196;11.880;2022-10-26T00:03:36;10.20;99.90
1383;DHT22;685;47.196;11.880;2022-10-26T00:06:07;10.30;99.90
1383;DHT22;685;47.196;11.880;2022-10-26T00:08:34;10.60;99.90
1383;DHT22;685;47.196;11.880;2022-10-26T00:11:03;10.70;99.90
1383;DHT22;685;47.196;11.880;2022-10-26T00:13:30;10.70;99.90
1383;DHT22;685;47.196;11.880;2022-10-26T00:15:57;10.60;99.90
1383;DHT22;685;47.196;11.880;2022-10-26T00:18:24;9.90;99.90
1383;DHT22;685;47.196;11.880;2022-10-26T00:20:51;9.30;99.90
1383;DHT22;685;47.196;11.880;2022-10-26T00:23:18;9.30;99.90
1383;DHT22;685;47.196;11.880;2022-10-26T00:25:53;9.60;99.90
1383;DHT22;685;47.196;11.880;2022-10-26T00:28:22;9.70;99.90
1383;DHT22;685;47.196;11.880;2022-10-26T00:30:49;10.10;99.90
1383;DHT22;685;47.196;11.880;2022-10-26T00:33:16;10.20;99.90
1383;DHT22;685;47.196;11.880;2022-10-26T00:35:46;10.50;99.90
1383;DHT22;685;47.196;11.880;2022-10-26T00:38:13;10.50;99.90
1383;DHT22;685;47.196;11.880;2022-10-26T00:40:40;10.60;99.90
1383;DHT22;685;47.196;11.880;2022-10-26T00:45:57;9.30;99.90
1383;DHT22;685;47.196;11.880;2022-10-26T00:48:26;9.20;99.90
1383;DHT22;685;47.196;11.880;2022-10-26T00:50:55;9.30;99.90
1383;DHT22;685;47.196;11.880;2022-10-26T00:53:24;9.70;99.90
1383;DHT22;685;47.196;11.880;2022-10-26T00:55:52;10.10;99.90
1383;DHT22;685;47.196;11.880;2022-10-26T00:58:20;10.30;99.90
1383;DHT22;685;47.196;11.880;2022-10-26T01:00:48;10.20;99.90
1383;DHT22;685;47.196;11.880;2022-10-26T01:03:17;10.20;99.90
1383;DHT22;685;47.196;11.880;2022-10-26T01:05:45;10.40;99.90
1383;DHT22;685;47.196;11.880;2022-10-26T01:08:13;10.40;99.90
1383;DHT22;685;47.196;11.880;2022-10-26T01:10:42;10.50;99.90
1383;DHT22;685;47.196;11.880;2022-10-26T01:13:09;10.60;99.90
1383;DHT22;685;47.196;11.880;2022-10-26T01:15:44;10.50;99.90
1383;DHT22;685;47.196;11.880;2022-10-26T01:18:20;10.70;99.90
1383;DHT22;685;47.196;11.880;2022-10-26T01:27:11;10.30;99.90
1383;DHT22;685;47.196;11.880;2022-10-26T01:29:57;9.60;99.90
1383;DHT22;685;47.196;11.880;2022-10-26T01:32:31;9.40;99.90
1383;DHT22;685;47.196;11.880;2022-10-26T01:35:03;9.50;99.90
1383;DHT22;685;47.196;11.880;2022-10-26T01:37:36;9.80;99.90
1383;DHT22;685;47.196;11.880;2022-10-26T01:40:09;10.20;99.90
1383;DHT22;685;47.196;11.880;2022-10-26T01:42:40;10.40;99.90
1383;DHT22;685;47.196;11.880;2022-10-26T01:45:11;9.90;99.90
1383;DHT22;685;47.196;11.880;2022-10-26T01:47:42;10.00;99.90
1383;DHT22;685;47.196;11.880;2022-10-26T01:50:10;10.30;99.90
1383;DHT22;685;47.196;11.880;2022-10-26T01:52:37;10.50;99.90
1383;DHT22;685;47.196;11.880;2022-10-26T01:55:32;10.50;99.90
1383;DHT22;685;47.196;11.880;2022-10-26T01:57:54;10.70;99.90
1383;DHT22;685;47.196;11.880;2022-10-26T02:00:26;10.70;99.90
1383;DHT22;685;47.196;11.880;2022-10-26T02:03:06;10.50;99.90
1383;DHT22;685;47.196;11.880;2022-10-26T02:05:59;10.20;99.90
1383;DHT22;685;47.196;11.880;2022-10-26T02:08:41;10.50;99.90
1383;DHT22;685;47.196;11.880;2022-10-26T02:11:18;10.40;99.90
1383;DHT22;685;47.196;11.880;2022-10-26T02:13:51;9.80;99.90
1383;DHT22;685;47.196;11.880;2022-10-26T02:16:24;9.90;99.90
1383;DHT22;685;47.196;11.880;2022-10-26T02:19:01;10.10;99.90
1383;DHT22;685;47.196;11.880;2022-10-26T02:21:34;10.40;99.90
1383;DHT22;685;47.196;11.880;2022-10-26T02:24:03;10.00;99.90
1383;DHT22;685;47.196;11.880;2022-10-26T02:26:32;10.00;99.90
1383;DHT22;685;47.196;11.880;2022-10-26T02:29:03;10.40;99.90
1383;DHT22;685;47.196;11.880;2022-10-26T02:31:31;9.90;99.90
1383;DHT22;685;47.196;11.880;2022-10-26T02:34:02;9.60;99.90
1383;DHT22;685;47.196;11.880;2022-10-26T02:36:35;9.50;99.90
1383;DHT22;685;47.196;11.880;2022-10-26T02:39:04;9.40;99.90
1383;DHT22;685;47.196;11.880;2022-10-26T02:41:31;9.60;99.90
1383;DHT22;685;47.196;11.880;2022-10-26T02:44:03;9.90;99.90
1383;DHT22;685;47.196;11.880;2022-10-26T02:46:31;10.30;99.90
1383;DHT22;685;47.196;11.880;2022-10-26T02:49:00;10.40;99.90
1383;DHT22;685;47.196;11.880;2022-10-26T02:51:33;10.30;99.90
1383;DHT22;685;47.196;11.880;2022-10-26T02:54:06;9.90;99.90
1383;DHT22;685;47.196;11.880;2022-10-26T02:56:41;9.60;99.90
1383;DHT22;685;47.196;11.880;2022-10-26T02:59:11;9.60;99.90
1383;DHT22;685;47.196;11.880;2022-10-26T03:01:39;9.60;99.90
1383;DHT22;685;47.196;11.880;2022-10-26T03:04:07;9.70;99.90
1383;DHT22;685;47.196;11.880;2022-10-26T03:06:34;9.90;99.90
1383;DHT22;685;47.196;11.880;2022-10-26T03:09:01;10.10;99.90
1383;DHT22;685;47.196;11.880;2022-10-26T03:11:28;10.20;99.90
1383;DHT22;685;47.196;11.880;2022-10-26T03:13:54;10.40;99.90
1383;DHT22;685;47.196;11.880;2022-10-26T03:16:21;10.50;99.90
1383;DHT22;685;47.196;11.880;2022-10-26T03:18:48;10.50;99.90
1383;DHT22;685;47.196;11.880;2022-10-26T03:21:16;10.60;99.90
1383;DHT22;685;47.196;11.880;2022-10-26T03:23:43;10.60;99.90
1383;DHT22;685;47.196;11.880;2022-10-26T03:26:12;10.60;99.90
1383;DHT22;685;47.196;11.880;2022-10-26T03:28:39;10.60;99.90
1383;DHT22;685;47.196;11.880;2022-10-26T03:31:06;10.60;99.90
1383;DHT22;685;47.196;11.880;2022-10-26T03:33:33;10.60;99.90
1383;DHT22;685;47.196;11.880;2022-10-26T03:36:00;10.60;99.90
1383;DHT22;685;47.196;11.880;2022-10-26T03:38:28;10.50;99.90
1383;DHT22;685;47.196;11.880;2022-10-26T03:40:55;10.60;99.90
1383;DHT22;685;47.196;11.880;2022-10-26T03:43:22;10.70;99.90
1383;DHT22;685;47.196;11.880;2022-10-26T03:45:49;10.30;99.90
1383;DHT22;685;47.196;11.880;2022-10-26T03:48:15;10.00;99.90
1383;DHT22;685;47.196;11.880;2022-10-26T03:50:42;10.00;99.90
1383;DHT22;685;47.196;11.880;2022-10-26T03:53:09;10.30;99.90
1383;DHT22;685;47.196;11.880;2022-10-26T03:55:38;10.50;99.90
1383;DHT22;685;47.196;11.880;2022-10-26T03:58:04;10.60;99.90
1383;DHT22;685;47.196;11.880;2022-10-26T04:00:31;10.70;99.90
1383;DHT22;685;47.196;11.880;2022-10-26T04:02:59;10.10;99.90
1383;DHT22;685;47.196;11.880;2022-10-26T04:05:27;9.90;99.90
1383;DHT22;685;47.196;11.880;2022-10-26T04:07:56;9.80;99.90
1383;DHT22;685;47.196;11.880;2022-10-26T04:10:24;9.70;99.90
1383;DHT22;685;47.196;11.880;2022-10-26T04:12:53;9.70;99.90
1383;DHT22;685;47.196;11.880;2022-10-26T04:15:20;9.80;99.90
1383;DHT22;685;47.196;11.880;2022-10-26T04:17:47;10.10;99.90
1383;DHT22;685;47.196;11.880;2022-10-26T04:20:14;10.40;99.90
1383;DHT22;685;47.196;11.880;2022-10-26T04:22:41;10.50;99.90
1383;DHT22;685;47.196;11.880;2022-10-26T04:25:08;10.50;99.90
1383;DHT22;685;47.196;11.880;2022-10-26T04:27:36;10.60;99.90
1383;DHT22;685;47.196;11.880;2022-10-26T04:30:06;10.50;99.90
1383;DHT22;685;47.196;11.880;2022-10-26T04:32:34;9.80;99.90
1383;DHT22;685;47.196;11.880;2022-10-26T04:35:01;9.70;99.90
1383;DHT22;685;47.196;11.880;2022-10-26T04:37:28;10.00;99.90
1383;DHT22;685;47.196;11.880;2022-10-26T04:39:55;10.10;99.90
1383;DHT22;685;47.196;11.880;2022-10-26T04:42:22;10.10;99.90
1383;DHT22;685;47.196;11.880;2022-10-26T04:44:48;10.20;99.90
1383;DHT22;685;47.196;11.880;2022-10-26T04:47:17;10.40;99.90
1383;DHT22;685;47.196;11.880;2022-10-26T04:49:43;10.60;99.90
1383;DHT22;685;47.196;11.880;2022-10-26T04:52:10;10.60;99.90
1383;DHT22;685;47.196;11.880;2022-10-26T04:54:37;10.60;99.90
1383;DHT22;685;47.196;11.880;2022-10-26T04:57:04;10.70;99.90
1383;DHT22;685;47.196;11.880;2022-10-26T04:59:31;10.60;99.90
1383;DHT22;685;47.196;11.880;2022-10-26T05:01:58;10.50;99.90
1383;DHT22;685;47.196;11.880;2022-10-26T05:04:26;10.60;99.90
1383;DHT22;685;47.196;11.880;2022-10-26T05:06:53;10.70;99.90
1383;DHT22;685;47.196;11.880;2022-10-26T05:09:19;10.10;99.90
1383;DHT22;685;47.196;11.880;2022-10-26T05:11:46;10.00;99.90
1383;DHT22;685;47.196;11.880;2022-10-26T05:14:13;10.20;99.90
1383;DHT22;685;47.196;11.880;2022-10-26T05:16:40;10.40;99.90
1383;DHT22;685;47.196;11.880;2022-10-26T05:19:09;10.60;99.90
1383;DHT22;685;47.196;11.880;2022-10-26T05:21:37;10.70;99.90
1383;DHT22;685;47.196;11.880;2022-10-26T05:24:05;9.70;99.90
1383;DHT22;685;47.196;11.880;2022-10-26T05:26:31;9.30;99.90
1383;DHT22;685;47.196;11.880;2022-10-26T05:28:58;9.20;99.90
1383;DHT22;685;47.196;11.880;2022-10-26T05:31:25;9.10;99.90
1383;DHT22;685;47.196;11.880;2022-10-26T05:33:52;9.20;99.90
1383;DHT22;685;47.196;11.880;2022-10-26T05:36:19;9.40;99.90
1383;DHT22;685;47.196;11.880;2022-10-26T05:38:47;9.80;99.90
1383;DHT22;685;47.196;11.880;2022-10-26T05:41:14;9.90;99.90
1383;DHT22;685;47.196;11.880;2022-10-26T05:43:41;9.30;99.90
1383;DHT22;685;47.196;11.880;2022-10-26T05:46:08;9.10;99.90
1383;DHT22;685;47.196;11.880;2022-10-26T05:48:35;9.20;99.90
1383;DHT22;685;47.196;11.880;2022-10-26T05:51:02;9.30;99.90
1383;DHT22;685;47.196;11.880;2022-10-26T05:53:28;9.50;99.90
1383;DHT22;685;47.196;11.880;2022-10-26T05:55:57;9.30;99.90
1383;DHT22;685;47.196;11.880;2022-10-26T05:58:25;9.30;99.90
1383;DHT22;685;47.196;11.880;2022-10-26T06:01:02;9.40;99.90
1383;DHT22;685;47.196;11.880;2022-10-26T06:03:44;9.50;99.90
1383;DHT22;685;47.196;11.880;2022-10-26T06:06:14;9.50;99.90
1383;DHT22;685;47.196;11.880;2022-10-26T06:08:41;9.40;99.90
1383;DHT22;685;47.196;11.880;2022-10-26T06:11:10;9.40;99.90
1383;DHT22;685;47.196;11.880;2022-10-26T06:13:38;9.40;99.90
1383;DHT22;685;47.196;11.880;2022-10-26T06:16:23;9.60;99.90
1383;DHT22;685;47.196;11.880;2022-10-26T06:19:00;9.60;99.90
1383;DHT22;685;47.196;11.880;2022-10-26T06:21:40;9.70;99.90
1383;DHT22;685;47.196;11.880;2022-10-26T06:24:17;9.70;99.90
1383;DHT22;685;47.196;11.880;2022-10-26T06:26:55;9.90;99.90
1383;DHT22;685;47.196;11.880;2022-10-26T06:29:33;10.10;99.90
1383;DHT22;685;47.196;11.880;2022-10-26T06:32:02;10.40;99.90
1383;DHT22;685;47.196;11.880;2022-10-26T06:34:35;10.50;99.90
1383;DHT22;685;47.196;11.880;2022-10-26T06:37:04;10.50;99.90
1383;DHT22;685;47.196;11.880;2022-10-26T06:39:35;10.50;99.90
1383;DHT22;685;47.196;11.880;2022-10-26T06:42:05;10.70;99.90
1383;DHT22;685;47.196;11.880;2022-10-26T06:44:32;10.70;99.90
1383;DHT22;685;47.196;11.880;2022-10-26T06:47:05;10.80;99.90
1383;DHT22;685;47.196;11.880;2022-10-26T06:49:35;10.80;99.90
1383;DHT22;685;47.196;11.880;2022-10-26T06:52:08;10.90;99.90
1383;DHT22;685;47.196;11.880;2022-10-26T06:54:46;10.90;99.90
1383;DHT22;685;47.196;11.880;2022-10-26T06:57:16;10.90;99.90
1383;DHT22;685;47.196;11.880;2022-10-26T06:59:46;10.80;99.90
1383;DHT22;685;47.196;11.880;2022-10-26T07:02:14;10.80;99.90
1383;DHT22;685;47.196;11.880;2022-10-26T07:04:41;10.50;99.90
1383;DHT22;685;47.196;11.880;2022-10-26T07:07:08;10.40;99.90
1383;DHT22;685;47.196;11.880;2022-10-26T07:09:37;10.50;99.90
1383;DHT22;685;47.196;11.880;2022-10-26T07:12:04;10.70;99.90
1383;DHT22;685;47.196;11.880;2022-10-26T07:14:32;10.80;99.90
1383;DHT22;685;47.196;11.880;2022-10-26T07:16:59;10.80;99.90
1383;DHT22;685;47.196;11.880;2022-10-26T07:19:26;10.70;99.90
1383;DHT22;685;47.196;11.880;2022-10-26T07:21:53;10.80;99.90
1383;DHT22;685;47.196;11.880;2022-10-26T07:24:21;10.90;99.90
1383;DHT22;685;47.196;11.880;2022-10-26T07:26:48;10.60;99.90
1383;DHT22;685;47.196;11.880;2022-10-26T07:29:14;10.50;99.90
1383;DHT22;685;47.196;11.880;2022-10-26T07:31:43;10.40;99.90
1383;DHT22;685;47.196;11.880;2022-10-26T07:34:10;10.40;99.90
1383;DHT22;685;47.196;11.880;2022-10-26T07:36:37;10.50;99.90
1383;DHT22;685;47.196;11.880;2022-10-26T07:39:04;10.60;99.90
1383;DHT22;685;47.196;11.880;2022-10-26T07:41:31;10.80;99.90
1383;DHT22;685;47.196;11.880;2022-10-26T07:43:59;10.90;99.90
1383;DHT22;685;47.196;11.880;2022-10-26T07:46:26;11.00;99.90
1383;DHT22;685;47.196;11.880;2022-10-26T07:48:55;10.70;99.90
1383;DHT22;685;47.196;11.880;2022-10-26T07:51:21;10.60;99.90
1383;DHT22;685;47.196;11.880;2022-10-26T07:53:48;10.60;99.90
1383;DHT22;685;47.196;11.880;2022-10-26T07:56:15;10.80;99.90
1383;DHT22;685;47.196;11.880;2022-10-26T07:58:42;11.00;99.90
1383;DHT22;685;47.196;11.880;2022-10-26T08:01:10;11.00;99.90
1383;DHT22;685;47.196;11.880;2022-10-26T08:03:37;11.10;99.90
1383;DHT22;685;47.196;11.880;2022-10-26T08:06:06;10.80;99.90
1383;DHT22;685;47.196;11.880;2022-10-26T08:08:35;11.00;99.90
1383;DHT22;685;47.196;11.880;2022-10-26T08:11:03;10.70;99.90
1383;DHT22;685;47.196;11.880;2022-10-26T08:13:30;10.70;99.90
1383;DHT22;685;47.196;11.880;2022-10-26T08:16:01;11.00;99.90
1383;DHT22;685;47.196;11.880;2022-10-26T08:18:28;11.40;99.90
1383;DHT22;685;47.196;11.880;2022-10-26T08:21:00;11.50;99.90
1383;DHT22;685;47.196;11.880;2022-10-26T08:23:29;11.60;99.90
1383;DHT22;685;47.196;11.880;2022-10-26T08:25:57;11.50;99.90
1383;DHT22;685;47.196;11.880;2022-10-26T08:28:25;11.50;99.90
1383;DHT22;685;47.196;11.880;2022-10-26T08:30:51;11.50;99.90
1383;DHT22;685;47.196;11.880;2022-10-26T08:33:18;11.10;99.90
1383;DHT22;685;47.196;11.880;2022-10-26T08:35:45;11.10;99.90
1383;DHT22;685;47.196;11.880;2022-10-26T08:38:12;11.30;99.90
1383;DHT22;685;47.196;11.880;2022-10-26T08:40:42;11.20;99.90
1383;DHT22;685;47.196;11.880;2022-10-26T08:43:14;11.20;99.90
1383;DHT22;685;47.196;11.880;2022-10-26T08:45:47;11.10;99.90
1383;DHT22;685;47.196;11.880;2022-10-26T08:48:17;11.00;99.90
1383;DHT22;685;47.196;11.880;2022-10-26T08:50:48;11.00;99.90
1383;DHT22;685;47.196;11.880;2022-10-26T08:53:20;11.20;99.90
1383;DHT22;685;47.196;11.880;2022-10-26T08:55:52;11.20;99.90
1383;DHT22;685;47.196;11.880;2022-10-26T08:58:24;11.30;99.90
1383;DHT22;685;47.196;11.880;2022-10-26T09:00:53;11.50;99.90
1383;DHT22;685;47.196;11.880;2022-10-26T09:03:20;11.70;99.90
1383;DHT22;685;47.196;11.880;2022-10-26T09:06:03;11.90;99.90
1383;DHT22;685;47.196;11.880;2022-10-26T09:08:40;12.10;99.90
1383;DHT22;685;47.196;11.880;2022-10-26T09:11:17;12.10;99.90
1383;DHT22;685;47.196;11.880;2022-10-26T09:13:54;12.00;99.90
1383;DHT22;685;47.196;11.880;2022-10-26T09:16:29;12.10;99.90
1383;DHT22;685;47.196;11.880;2022-10-26T09:19:21;12.00;99.90
1383;DHT22;685;47.196;11.880;2022-10-26T09:21:55;11.90;99.90
1383;DHT22;685;47.196;11.880;2022-10-26T09:24:28;11.70;99.90
1383;DHT22;685;47.196;11.880;2022-10-26T09:27:01;11.60;99.90
1383;DHT22;685;47.196;11.880;2022-10-26T09:29:37;11.70;99.90
1383;DHT22;685;47.196;11.880;2022-10-26T09:32:09;11.80;99.90
1383;DHT22;685;47.196;11.880;2022-10-26T09:34:42;11.80;99.90
1383;DHT22;685;47.196;11.880;2022-10-26T09:37:14;11.90;99.90
1383;DHT22;685;47.196;11.880;2022-10-26T09:39:48;11.90;99.90
1383;DHT22;685;47.196;11.880;2022-10-26T09:42:21;12.00;99.90
1383;DHT22;685;47.196;11.880;2022-10-26T09:44:53;12.00;99.90
1383;DHT22;685;47.196;11.880;2022-10-26T09:47:31;12.00;99.90
1383;DHT22;685;47.196;11.880;2022-10-26T09:50:04;12.00;99.90
1383;DHT22;685;47.196;11.880;2022-10-26T09:52:32;12.10;99.90
1383;DHT22;685;47.196;11.880;2022-10-26T09:54:59;12.20;99.90
1383;DHT22;685;47.196;11.880;2022-10-26T09:57:27;12.30;99.90
1383;DHT22;685;47.196;11.880;2022-10-26T09:59:55;12.40;99.90
1383;DHT22;685;47.196;11.880;2022-10-26T10:02:33;12.40;99.90
1383;DHT22;685;47.196;11.880;2022-10-26T10:05:00;12.50;99.90
1383;DHT22;685;47.196;11.880;2022-10-26T10:07:27;12.50;99.90
1383;DHT22;685;47.196;11.880;2022-10-26T10:10:16;12.80;99.90
1383;DHT22;685;47.196;11.880;2022-10-26T10:12:45;13.20;99.90
1383;DHT22;685;47.196;11.880;2022-10-26T10:15:20;13.40;99.90
1383;DHT22;685;47.196;11.880;2022-10-26T10:17:51;13.40;99.90
1383;DHT22;685;47.196;11.880;2022-10-26T10:20:22;13.30;99.90
1383;DHT22;685;47.196;11.880;2022-10-26T10:22:57;13.30;99.90
1383;DHT22;685;47.196;11.880;2022-10-26T10:25:35;13.20;99.90
1383;DHT22;685;47.196;11.880;2022-10-26T10:28:19;13.20;99.90
1383;DHT22;685;47.196;11.880;2022-10-26T10:30:51;13.30;99.90
1383;DHT22;685;47.196;11.880;2022-10-26T10:33:19;13.20;99.90
1383;DHT22;685;47.196;11.880;2022-10-26T10:35:49;13.30;99.90
1383;DHT22;685;47.196;11.880;2022-10-26T10:38:19;13.20;99.90
1383;DHT22;685;47.196;11.880;2022-10-26T10:40:50;13.30;99.90
1383;DHT22;685;47.196;11.880;2022-10-26T10:43:19;13.50;99.90
1383;DHT22;685;47.196;11.880;2022-10-26T10:45:48;13.80;99.90
1383;DHT22;685;47.196;11.880;2022-10-26T10:48:18;13.70;99.90
1383;DHT22;685;47.196;11.880;2022-10-26T10:50:55;13.80;99.90
1383;DHT22;685;47.196;11.880;2022-10-26T10:53:27;13.90;99.90
1383;DHT22;685;47.196;11.880;2022-10-26T10:56:04;14.00;99.90
1383;DHT22;685;47.196;11.880;2022-10-26T10:58:38;14.00;99.90
1383;DHT22;685;47.196;11.880;2022-10-26T11:01:12;13.90;99.90
1383;DHT22;685;47.196;11.880;2022-10-26T11:03:47;13.80;99.90
1383;DHT22;685;47.196;11.880;2022-10-26T11:06:20;13.70;99.90
1383;DHT22;685;47.196;11.880;2022-10-26T11:08:49;13.50;99.90
1383;DHT22;685;47.196;11.880;2022-10-26T11:11:20;13.40;99.90
1383;DHT22;685;47.196;11.880;2022-10-26T11:13:52;13.40;99.90
1383;DHT22;685;47.196;11.880;2022-10-26T11:16:23;13.40;99.90
1383;DHT22;685;47.196;11.880;2022-10-26T11:18:55;13.40;99.90
1383;DHT22;685;47.196;11.880;2022-10-26T11:21:26;13.50;99.90
1383;DHT22;685;47.196;11.880;2022-10-26T11:24:03;13.50;99.90
1383;DHT22;685;47.196;11.880;2022-10-26T11:26:40;13.50;99.90
1383;DHT22;685;47.196;11.880;2022-10-26T11:29:18;13.50;99.90
1383;DHT22;685;47.196;11.880;2022-10-26T11:31:51;13.60;99.90
1383;DHT22;685;47.196;11.880;2022-10-26T11:34:26;13.70;99.90
1383;DHT22;685;47.196;11.880;2022-10-26T11:36:58;13.60;99.90
1383;DHT22;685;47.196;11.880;2022-10-26T11:39:33;13.60;99.90
1383;DHT22;685;47.196;11.880;2022-10-26T11:42:05;13.60;99.90
1383;DHT22;685;47.196;11.880;2022-10-26T11:44:39;13.80;99.90
1383;DHT22;685;47.196;11.880;2022-10-26T11:47:12;13.80;99.90
1383;DHT22;685;47.196;11.880;2022-10-26T11:49:43;14.00;99.90
1383;DHT22;685;47.196;11.880;2022-10-26T11:52:13;13.80;99.90
1383;DHT22;685;47.196;11.880;2022-10-26T11:54:44;13.80;99.90
1383;DHT22;685;47.196;11.880;2022-10-26T11:57:13;13.80;99.90
1383;DHT22;685;47.196;11.880;2022-10-26T11:59:46;13.80;99.90
1383;DHT22;685;47.196;11.880;2022-10-26T12:02:15;13.80;99.90
1383;DHT22;685;47.196;11.880;2022-10-26T12:04:46;13.80;99.90
1383;DHT22;685;47.196;11.880;2022-10-26T12:07:19;13.80;99.90
1383;DHT22;685;47.196;11.880;2022-10-26T12:09:47;13.90;99.90
1383;DHT22;685;47.196;11.880;2022-10-26T12:12:20;14.00;99.90
1383;DHT22;685;47.196;11.880;2022-10-26T12:14:55;13.90;99.90
1383;DHT22;685;47.196;11.880;2022-10-26T12:17:28;13.90;99.90
1383;DHT22;685;47.196;11.880;2022-10-26T12:20:05;13.90;99.90
1383;DHT22;685;47.196;11.880;2022-10-26T12:22:37;14.00;99.90
1383;DHT22;685;47.196;11.880;2022-10-26T12:25:17;14.00;99.90
1383;DHT22;685;47.196;11.880;2022-10-26T12:27:53;14.20;99.90
1383;DHT22;685;47.196;11.880;2022-10-26T12:30:32;14.10;99.90
1383;DHT22;685;47.196;11.880;2022-10-26T12:33:02;14.10;99.90
1383;DHT22;685;47.196;11.880;2022-10-26T12:35:49;14.10;99.90
1383;DHT22;685;47.196;11.880;2022-10-26T12:41:31;14.30;99.90
1383;DHT22;685;47.196;11.880;2022-10-26T12:44:02;14.30;99.90
1383;DHT22;685;47.196;11.880;2022-10-26T12:46:41;14.20;99.90
1383;DHT22;685;47.196;11.880;2022-10-26T12:52:20;14.40;99.90
1383;DHT22;685;47.196;11.880;2022-10-26T12:55:02;14.40;99.90
1383;DHT22;685;47.196;11.880;2022-10-26T12:57:42;14.30;99.90
1383;DHT22;685;47.196;11.880;2022-10-26T13:00:14;14.30;99.90
1383;DHT22;685;47.196;11.880;2022-10-26T13:02:53;14.40;99.90
1383;DHT22;685;47.196;11.880;2022-10-26T13:05:53;14.20;99.90
1383;DHT22;685;47.196;11.880;2022-10-26T13:08:24;14.20;99.90
1383;DHT22;685;47.196;11.880;2022-10-26T13:11:01;14.20;99.90
1383;DHT22;685;47.196;11.880;2022-10-26T13:13:30;14.30;99.90
1383;DHT22;685;47.196;11.880;2022-10-26T13:16:01;14.40;99.90
1383;DHT22;685;47.196;11.880;2022-10-26T13:18:30;14.40;99.90
1383;DHT22;685;47.196;11.880;2022-10-26T13:21:05;14.40;99.90
1383;DHT22;685;47.196;11.880;2022-10-26T13:23:35;14.50;99.90
1383;DHT22;685;47.196;11.880;2022-10-26T13:26:06;14.40;99.90
1383;DHT22;685;47.196;11.880;2022-10-26T13:28:43;14.40;99.90
1383;DHT22;685;47.196;11.880;2022-10-26T13:31:19;14.40;99.90
1383;DHT22;685;47.196;11.880;2022-10-26T13:34:14;14.40;99.90
1383;DHT22;685;47.196;11.880;2022-10-26T13:36:46;14.40;99.90
1383;DHT22;685;47.196;11.880;2022-10-26T13:39:19;14.40;99.90
1383;DHT22;685;47.196;11.880;2022-10-26T13:41:48;14.50;99.90
1383;DHT22;685;47.196;11.880;2022-10-26T13:44:22;14.60;99.90
1383;DHT22;685;47.196;11.880;2022-10-26T13:46:53;14.50;99.90
1383;DHT22;685;47.196;11.880;2022-10-26T13:49:25;14.40;99.90
1383;DHT22;685;47.196;11.880;2022-10-26T13:51:53;14.30;99.90
1383;DHT22;685;47.196;11.880;2022-10-26T13:54:26;14.30;99.90
1383;DHT22;685;47.196;11.880;2022-10-26T13:57:03;14.30;99.90
1383;DHT22;685;47.196;11.880;2022-10-26T13:59:32;14.30;99.90
1383;DHT22;685;47.196;11.880;2022-10-26T14:02:12;14.30;99.90
1383;DHT22;685;47.196;11.880;2022-10-26T14:04:45;14.30;99.90
1383;DHT22;685;47.196;11.880;2022-10-26T14:07:16;14.50;99.90
1383;DHT22;685;47.196;11.880;2022-10-26T14:09:54;14.40;99.90
1383;DHT22;685;47.196;11.880;2022-10-26T14:12:23;14.40;99.90
1383;DHT22;685;47.196;11.880;2022-10-26T14:14:51;14.40;99.90
1383;DHT22;685;47.196;11.880;2022-10-26T14:17:19;14.30;99.90
1383;DHT22;685;47.196;11.880;2022-10-26T14:19:48;14.30;99.90
1383;DHT22;685;47.196;11.880;2022-10-26T14:22:19;14.30;99.90
1383;DHT22;685;47.196;11.880;2022-10-26T14:24:50;14.30;99.90
1383;DHT22;685;47.196;11.880;2022-10-26T14:27:19;14.30;99.90
1383;DHT22;685;47.196;11.880;2022-10-26T14:29:47;14.30;99.90
1383;DHT22;685;47.196;11.880;2022-10-26T14:32:22;14.40;99.90
1383;DHT22;685;47.196;11.880;2022-10-26T14:34:52;14.40;99.90
1383;DHT22;685;47.196;11.880;2022-10-26T14:37:25;14.40;99.90
1383;DHT22;685;47.196;11.880;2022-10-26T14:39:55;14.50;99.90
1383;DHT22;685;47.196;11.880;2022-10-26T14:42:26;14.50;99.90
1383;DHT22;685;47.196;11.880;2022-10-26T14:44:55;14.40;99.90
1383;DHT22;685;47.196;11.880;2022-10-26T14:47:24;14.40;99.90
1383;DHT22;685;47.196;11.880;2022-10-26T14:49:53;14.50;99.90
1383;DHT22;685;47.196;11.880;2022-10-26T14:52:22;14.40;99.90
1383;DHT22;685;47.196;11.880;2022-10-26T14:54:57;14.40;99.90
1383;DHT22;685;47.196;11.880;2022-10-26T14:57:30;14.30;99.90
1383;DHT22;685;47.196;11.880;2022-10-26T15:00:04;14.30;99.90
1383;DHT22;685;47.196;11.880;2022-10-26T15:02:37;14.40;99.90
1383;DHT22;685;47.196;11.880;2022-10-26T15:05:18;14.40;99.90
1383;DHT22;685;47.196;11.880;2022-10-26T15:07:46;14.40;99.90
1383;DHT22;685;47.196;11.880;2022-10-26T15:10:44;14.30;99.90
1383;DHT22;685;47.196;11.880;2022-10-26T15:13:19;14.20;99.90
1383;DHT22;685;47.196;11.880;2022-10-26T15:15:48;14.20;99.90
1383;DHT22;685;47.196;11.880;2022-10-26T15:18:19;14.20;99.90
1383;DHT22;685;47.196;11.880;2022-10-26T15:20:49;14.20;99.90
1383;DHT22;685;47.196;11.880;2022-10-26T15:23:17;14.20;99.90
1383;DHT22;685;47.196;11.880;2022-10-26T15:25:50;14.10;99.90
1383;DHT22;685;47.196;11.880;2022-10-26T15:28:22;14.10;99.90
1383;DHT22;685;47.196;11.880;2022-10-26T15:31:01;14.10;99.90
1383;DHT22;685;47.196;11.880;2022-10-26T15:33:29;14.00;99.90
1383;DHT22;685;47.196;11.880;2022-10-26T15:36:13;14.00;99.90
1383;DHT22;685;47.196;11.880;2022-10-26T15:38:41;14.00;99.90
1383;DHT22;685;47.196;11.880;2022-10-26T15:41:14;13.90;99.90
1383;DHT22;685;47.196;11.880;2022-10-26T15:43:42;13.90;99.90
1383;DHT22;685;47.196;11.880;2022-10-26T15:46:09;13.90;99.90
1383;DHT22;685;47.196;11.880;2022-10-26T15:48:36;13.80;99.90
1383;DHT22;685;47.196;11.880;2022-10-26T15:51:05;13.70;99.90
1383;DHT22;685;47.196;11.880;2022-10-26T15:53:35;13.70;99.90
1383;DHT22;685;47.196;11.880;2022-10-26T15:56:01;13.70;99.90
1383;DHT22;685;47.196;11.880;2022-10-26T15:58:31;13.70;99.90
1383;DHT22;685;47.196;11.880;2022-10-26T16:00:57;13.70;99.90
1383;DHT22;685;47.196;11.880;2022-10-26T16:03:25;13.60;99.90
1383;DHT22;685;47.196;11.880;2022-10-26T16:05:55;13.60;99.90
1383;DHT22;685;47.196;11.880;2022-10-26T16:08:23;13.60;99.90
1383;DHT22;685;47.196;11.880;2022-10-26T16:10:52;13.60;99.90
1383;DHT22;685;47.196;11.880;2022-10-26T16:13:19;13.50;99.90
1383;DHT22;685;47.196;11.880;2022-10-26T16:15:46;13.60;99.90
1383;DHT22;685;47.196;11.880;2022-10-26T16:18:13;13.60;99.90
1383;DHT22;685;47.196;11.880;2022-10-26T16:20:43;13.60;99.90
1383;DHT22;685;47.196;11.880;2022-10-26T16:23:10;13.50;99.90
1383;DHT22;685;47.196;11.880;2022-10-26T16:25:40;13.40;99.90
1383;DHT22;685;47.196;11.880;2022-10-26T16:28:10;13.50;99.90
1383;DHT22;685;47.196;11.880;2022-10-26T16:30:37;13.50;99.90
1383;DHT22;685;47.196;11.880;2022-10-26T16:33:04;13.40;99.90
1383;DHT22;685;47.196;11.880;2022-10-26T16:35:31;13.40;99.90
1383;DHT22;685;47.196;11.880;2022-10-26T16:37:58;13.50;99.90
1383;DHT22;685;47.196;11.880;2022-10-26T16:40:25;13.40;99.90
1383;DHT22;685;47.196;11.880;2022-10-26T16:42:52;13.50;99.90